Peachland, Canada
Current Conditions -  °F | °C
As of 9:00 AM on Sunday 23 Nov 2014 (Local Time) from CYLW Reporting Station
Light Rain Light Rain  
Wind Chill: 36°   Ceiling: 3300
Heat Index: 36°   Visibility: 9mi
Dew Point: 32°   Wind: 2mph
Humidity: 87%   Direction: NA
Pressure: 29.93"   Gusts: NA
Location:  49.77°N, 119.74°W
Report Text: CYLW 231700Z AUTO VRB02KT 9SM -RA OVC033 02/M00 A2993 RMK PRESFR SLP155
Loading
Personal Weather Stations






























Interactive Weather Map New forecast layout! Learn more

10-Day Weather Forecast

Advertisements
Track Severe Weather on mobile